createdAt,value
2019-04-21T00:00:11.845Z,71.30
2019-04-21T00:01:12.384Z,71.91
2019-04-21T00:02:11.052Z,71.91
2019-04-21T00:03:18.108Z,72.30
2019-04-21T00:04:19.842Z,71.73
2019-04-21T00:05:30.715Z,71.64
2019-04-21T00:06:35.276Z,71.58
2019-04-21T00:07:31.664Z,71.62
2019-04-21T00:09:40.687Z,71.79
2019-04-21T00:10:40.076Z,71.22
2019-04-21T00:11:35.694Z,71.37
2019-04-21T00:12:28.677Z,71.73
2019-04-21T00:13:28.248Z,71.21
2019-04-21T00:14:26.183Z,70.60
2019-04-21T00:15:27.636Z,71.35
2019-04-21T00:16:24.514Z,69.71
2019-04-21T00:17:21.103Z,70.26
2019-04-21T00:18:18.989Z,70.08
2019-04-21T00:19:24.280Z,69.57
2019-04-21T00:20:28.879Z,71.92
2019-04-21T00:21:29.208Z,71.47
2019-04-21T00:22:34.209Z,70.42
2019-04-21T00:23:37.432Z,70.88
2019-04-21T00:24:34.755Z,70.60
2019-04-21T00:25:34.857Z,70.65
2019-04-21T00:26:42.555Z,71.37
2019-04-21T00:27:41.347Z,71.69
2019-04-21T00:28:42.478Z,70.40
2019-04-21T00:29:43.135Z,70.68
2019-04-21T00:30:44.410Z,70.36
2019-04-21T00:31:39.363Z,69.90
2019-04-21T00:32:38.091Z,70.63
2019-04-21T00:33:28.868Z,69.82
2019-04-21T00:34:25.791Z,69.86
2019-04-21T00:35:29.388Z,69.02
2019-04-21T00:36:38.425Z,69.96
2019-04-21T00:37:52.180Z,69.76
2019-04-21T00:38:59.202Z,69.93
2019-04-21T00:39:09.909Z,68.48
2019-04-21T00:40:02.213Z,68.49
2019-04-21T00:41:00.577Z,68.54
2019-04-21T00:41:59.571Z,67.35
2019-04-21T00:42:57.172Z,68.27
2019-04-21T00:43:55.714Z,68.42
2019-04-21T00:44:58.659Z,68.43
2019-04-21T00:45:51.822Z,69.53
2019-04-21T00:46:58.385Z,70.05
2019-04-21T00:48:05.966Z,69.92
2019-04-21T00:48:59.220Z,69.00
2019-04-21T00:50:05.085Z,69.15
2019-04-21T00:51:16.954Z,69.26
2019-04-21T00:52:14.521Z,69.10
2019-04-21T00:53:05.560Z,69.67
2019-04-21T00:54:10.533Z,69.99
2019-04-21T00:55:14.168Z,70.00
2019-04-21T00:56:09.218Z,69.86
2019-04-21T00:57:10.527Z,69.62
2019-04-21T00:58:16.002Z,70.77
2019-04-21T00:59:13.975Z,70.23
2019-04-21T01:00:16.387Z,70.31
2019-04-21T01:01:07.394Z,69.95
2019-04-21T01:02:09.152Z,69.64
2019-04-21T01:03:14.586Z,71.36
2019-04-21T01:05:18.665Z,69.93
2019-04-21T01:06:21.269Z,70.41
2019-04-21T01:07:12.448Z,70.07
2019-04-21T01:08:13.262Z,70.91
2019-04-21T01:09:13.551Z,71.14
2019-04-21T01:10:10.213Z,71.17
2019-04-21T01:11:19.485Z,71.38
2019-04-21T01:12:19.345Z,71.04
2019-04-21T01:13:23.328Z,71.76
2019-04-21T01:14:11.764Z,71.31
2019-04-21T01:15:24.819Z,71.24
2019-04-21T01:16:22.304Z,71.50
2019-04-21T01:17:21.927Z,71.29
2019-04-21T01:18:20.629Z,71.53
2019-04-21T01:19:18.281Z,71.18
2019-04-21T01:20:12.914Z,71.13
2019-04-21T01:21:13.357Z,71.74
2019-04-21T01:22:02.424Z,71.20
2019-04-21T01:23:04.426Z,70.82
2019-04-21T01:24:11.428Z,70.79
2019-04-21T01:25:14.547Z,71.19
2019-04-21T01:26:18.429Z,71.05
2019-04-21T01:27:21.415Z,71.50
2019-04-21T01:28:24.640Z,71.34
2019-04-21T01:29:29.091Z,71.18
2019-04-21T01:30:32.584Z,71.69
2019-04-21T01:31:23.089Z,72.53
2019-04-21T01:32:31.203Z,71.91
2019-04-21T01:33:35.003Z,72.25
2019-04-21T01:34:32.966Z,71.76
2019-04-21T01:35:34.980Z,72.25
2019-04-21T01:36:33.465Z,72.65
2019-04-21T01:37:40.903Z,71.98
2019-04-21T01:39:44.061Z,72.20
2019-04-21T01:40:33.844Z,72.00
2019-04-21T01:41:39.127Z,72.62
2019-04-21T01:42:32.767Z,72.38
2019-04-21T01:43:33.461Z,71.54
2019-04-21T01:44:54.814Z,72.16
2019-04-21T01:45:37.002Z,73.26
2019-04-21T01:46:33.646Z,73.07
2019-04-21T01:47:36.042Z,72.69
2019-04-21T01:48:34.211Z,72.71
2019-04-21T01:49:29.603Z,73.05
2019-04-21T01:50:36.346Z,72.76
2019-04-21T01:51:46.718Z,73.38
2019-04-21T01:52:57.374Z,73.59
2019-04-21T01:53:43.523Z,73.80
2019-04-21T01:54:41.770Z,74.07
2019-04-21T01:55:45.412Z,74.43
2019-04-21T01:56:35.710Z,74.58
2019-04-21T01:57:42.517Z,74.72
2019-04-21T01:58:36.325Z,74.60
2019-04-21T01:59:35.031Z,75.04
2019-04-21T02:00:39.059Z,74.69
2019-04-21T02:01:45.828Z,75.16
2019-04-21T02:02:43.384Z,75.14
2019-04-21T02:03:52.863Z,75.97
2019-04-21T02:04:47.345Z,76.41
2019-04-21T02:05:52.995Z,76.04
2019-04-21T02:06:50.458Z,76.17
2019-04-21T02:07:49.141Z,76.43
2019-04-21T02:08:41.499Z,76.62
2019-04-21T02:09:51.323Z,76.78
2019-04-21T02:10:54.919Z,77.48
2019-04-21T02:11:56.505Z,77.14
2019-04-21T02:12:50.939Z,77.09
2019-04-21T02:14:02.007Z,77.41
2019-04-21T02:14:58.821Z,77.51
2019-04-21T02:15:59.386Z,77.54
2019-04-21T02:16:55.664Z,77.96
2019-04-21T02:17:53.945Z,78.31
2019-04-21T02:18:50.993Z,77.87
2019-04-21T02:19:52.689Z,77.60
2019-04-21T02:20:44.535Z,77.88
2019-04-21T02:21:47.469Z,78.11
2019-04-21T02:23:10.254Z,77.88
2019-04-21T02:23:59.000Z,77.95
2019-04-21T02:25:02.867Z,77.97
2019-04-21T02:25:57.818Z,77.88
2019-04-21T02:26:59.456Z,78.53
2019-04-21T02:28:04.783Z,78.54
2019-04-21T02:29:02.041Z,78.52
2019-04-21T02:30:00.134Z,78.71
2019-04-21T02:32:08.954Z,79.01
2019-04-21T02:33:16.829Z,79.44
2019-04-21T02:34:27.409Z,79.28
2019-04-21T02:36:22.806Z,79.28
2019-04-21T02:37:28.493Z,79.27
2019-04-21T02:40:12.356Z,79.32
2019-04-21T02:41:18.335Z,79.52
2019-04-21T02:42:11.627Z,79.63
2019-04-21T02:43:22.906Z,79.64
2019-04-21T02:44:18.341Z,80.28
2019-04-21T02:45:17.271Z,80.12
2019-04-21T02:46:25.375Z,79.70
2019-04-21T02:47:30.028Z,80.55
2019-04-21T02:48:20.962Z,80.69
2019-04-21T02:49:23.020Z,80.41
2019-04-21T02:51:25.614Z,81.17
2019-04-21T02:52:31.074Z,80.58
2019-04-21T02:54:48.214Z,80.69
2019-04-21T02:55:25.595Z,80.68
2019-04-21T02:56:24.694Z,80.92
2019-04-21T02:58:25.516Z,81.40
2019-04-21T02:59:22.744Z,81.10
2019-04-21T03:01:35.693Z,81.15
2019-04-21T03:02:39.090Z,81.58
2019-04-21T03:03:32.010Z,81.74
2019-04-21T03:04:34.710Z,81.09
2019-04-21T03:06:29.000Z,80.97
2019-04-21T03:07:50.228Z,81.17
2019-04-21T03:08:44.328Z,81.20
2019-04-21T03:10:34.757Z,81.92
2019-04-21T03:11:25.950Z,81.75
2019-04-21T03:15:41.506Z,82.11
2019-04-21T03:16:31.149Z,82.37
2019-04-21T03:18:39.993Z,81.82
2019-04-21T03:19:46.262Z,82.06
2019-04-21T03:21:38.802Z,82.70
2019-04-21T03:22:31.711Z,82.33
2019-04-21T03:23:55.756Z,82.28
2019-04-21T03:24:53.562Z,81.92
2019-04-21T03:27:00.132Z,82.65
2019-04-21T03:28:37.112Z,82.73
2019-04-21T03:32:04.397Z,82.66
2019-04-21T03:33:23.850Z,83.03
2019-04-21T03:33:29.802Z,83.07
2019-04-21T03:37:54.525Z,83.42
2019-04-21T03:38:57.286Z,83.50
2019-04-21T03:39:59.380Z,83.60
2019-04-21T03:40:47.587Z,83.49
2019-04-21T03:42:08.821Z,83.77
2019-04-21T03:42:59.460Z,83.18
2019-04-21T03:44:00.597Z,83.43
2019-04-21T03:48:05.237Z,84.32
2019-04-21T03:51:04.377Z,83.86
2019-04-21T03:52:15.083Z,84.39
2019-04-21T03:53:03.439Z,84.56
2019-04-21T03:54:00.045Z,84.94
2019-04-21T03:55:12.396Z,84.59
2019-04-21T03:56:02.772Z,84.62
2019-04-21T03:58:19.476Z,84.34
2019-04-21T04:00:23.942Z,84.71
2019-04-21T04:02:18.449Z,84.48
2019-04-21T04:03:42.096Z,84.48
2019-04-21T04:04:24.504Z,84.81
2019-04-21T04:05:26.461Z,84.61
2019-04-21T04:07:23.354Z,84.80
2019-04-21T04:08:22.931Z,84.95
2019-04-21T04:11:24.762Z,85.17
2019-04-21T04:12:12.514Z,84.73
2019-04-21T04:13:20.400Z,84.89
2019-04-21T04:15:22.826Z,84.66
2019-04-21T04:16:18.885Z,84.38
2019-04-21T04:17:18.628Z,84.67
2019-04-21T04:18:29.900Z,84.33
2019-04-21T04:19:18.609Z,84.64
2019-04-21T04:21:30.273Z,85.08
2019-04-21T04:22:35.413Z,85.69
2019-04-21T04:23:24.807Z,86.11
2019-04-21T04:24:31.049Z,86.47
2019-04-21T04:25:35.251Z,86.27
2019-04-21T04:26:26.209Z,86.45
2019-04-21T04:27:53.467Z,87.04
2019-04-21T04:28:36.364Z,86.06
2019-04-21T04:29:24.535Z,85.78
2019-04-21T04:30:33.983Z,85.36
2019-04-21T04:32:30.691Z,84.39
2019-04-21T04:33:39.216Z,84.55
2019-04-21T04:34:27.510Z,84.58
2019-04-21T04:35:34.149Z,84.06
2019-04-21T04:37:32.296Z,83.56
2019-04-21T04:38:52.192Z,83.98
2019-04-21T04:39:43.083Z,84.16
2019-04-21T04:40:31.015Z,84.00
2019-04-21T04:41:41.640Z,83.94
2019-04-21T04:42:39.315Z,84.19
2019-04-21T04:46:44.303Z,83.60
2019-04-21T04:47:36.926Z,84.01
2019-04-21T04:48:35.215Z,84.77
2019-04-21T04:49:45.958Z,84.20
2019-04-21T04:51:56.750Z,83.45
2019-04-21T04:52:40.153Z,83.93
2019-04-21T04:53:43.997Z,84.93
2019-04-21T04:54:47.513Z,85.48
2019-04-21T04:55:39.524Z,85.75
2019-04-21T04:56:40.538Z,84.92
2019-04-21T04:57:49.087Z,85.00
2019-04-21T04:58:59.502Z,84.45
2019-04-21T04:59:42.434Z,84.14
2019-04-21T05:02:00.346Z,83.87
2019-04-21T05:03:48.908Z,83.96
2019-04-21T05:05:49.089Z,83.64
2019-04-21T05:07:00.106Z,83.97
2019-04-21T05:07:52.182Z,84.45
2019-04-21T05:09:47.056Z,83.55
2019-04-21T05:10:59.054Z,84.26
2019-04-21T05:11:50.813Z,84.53
2019-04-21T05:12:47.980Z,83.80
2019-04-21T05:14:46.130Z,83.68
2019-04-21T05:15:53.269Z,84.44
2019-04-21T05:16:55.472Z,84.43
2019-04-21T05:18:08.617Z,83.76
2019-04-21T05:19:10.257Z,84.38
2019-04-21T05:20:03.333Z,83.49
2019-04-21T05:20:55.993Z,83.24
2019-04-21T05:21:45.334Z,83.24
2019-04-21T05:22:48.914Z,83.12
2019-04-21T05:23:42.683Z,83.99
2019-04-21T05:24:43.984Z,84.36
2019-04-21T05:25:41.689Z,83.69
2019-04-21T05:26:46.248Z,83.66
2019-04-21T05:27:39.895Z,83.06
2019-04-21T05:28:37.015Z,83.09
2019-04-21T05:29:55.610Z,81.91
2019-04-21T05:30:50.122Z,81.86
2019-04-21T05:31:50.664Z,80.20
2019-04-21T05:32:52.529Z,78.96
2019-04-21T05:33:54.702Z,77.60
2019-04-21T05:34:50.813Z,76.61
2019-04-21T05:35:49.022Z,74.85
2019-04-21T05:36:52.385Z,72.37
2019-04-21T05:37:47.335Z,70.72
2019-04-21T05:38:49.264Z,69.71
2019-04-21T05:39:48.993Z,67.56
2019-04-21T05:40:43.793Z,68.11
2019-04-21T05:41:41.766Z,67.04
2019-04-21T05:42:51.041Z,66.25
2019-04-21T05:44:01.612Z,64.35
2019-04-21T05:45:01.699Z,64.74
2019-04-21T05:45:58.446Z,63.78
2019-04-21T05:47:08.941Z,62.94
2019-04-21T05:48:02.777Z,62.33
2019-04-21T05:48:57.666Z,61.92
2019-04-21T05:49:56.095Z,60.97
2019-04-21T05:50:53.657Z,59.72
2019-04-21T05:51:55.601Z,58.83
2019-04-21T05:52:53.556Z,58.26
2019-04-21T05:54:07.273Z,57.40
2019-04-21T05:55:06.235Z,56.63
2019-04-21T05:56:03.383Z,55.89
2019-04-21T05:57:04.061Z,54.82
2019-04-21T05:58:04.204Z,55.80
2019-04-21T05:59:03.396Z,54.78
2019-04-21T06:00:01.182Z,54.46
2019-04-21T06:01:16.630Z,53.79
2019-04-21T06:02:13.952Z,53.79
2019-04-21T06:03:10.159Z,53.36
2019-04-21T06:04:17.498Z,53.69
2019-04-21T06:05:20.309Z,52.99
2019-04-21T06:06:13.568Z,54.00
2019-04-21T06:07:13.942Z,54.84
2019-04-21T06:08:13.692Z,54.43
2019-04-21T06:09:08.245Z,54.45
2019-04-21T06:10:08.864Z,54.37
2019-04-21T06:11:20.978Z,53.22
2019-04-21T06:12:16.138Z,53.28
2019-04-21T06:13:23.155Z,51.69
2019-04-21T06:14:13.988Z,51.34
2019-04-21T06:15:13.806Z,50.69
2019-04-21T06:16:14.025Z,50.07
2019-04-21T06:17:22.551Z,50.61
2019-04-21T06:18:20.339Z,50.11
2019-04-21T06:19:17.138Z,52.73
2019-04-21T06:20:20.723Z,52.53
2019-04-21T06:21:16.411Z,50.74
2019-04-21T06:22:16.686Z,50.17
2019-04-21T06:23:17.896Z,48.38
2019-04-21T06:24:17.377Z,48.08
2019-04-21T06:25:41.568Z,47.31
2019-04-21T06:28:28.386Z,47.93
2019-04-21T06:29:23.671Z,48.15
2019-04-21T06:30:26.567Z,48.12
2019-04-21T06:31:42.599Z,46.85
2019-04-21T06:32:38.497Z,46.82
2019-04-21T06:32:47.243Z,47.60
2019-04-21T06:33:35.648Z,47.32
2019-04-21T06:34:51.742Z,46.41
2019-04-21T06:35:48.934Z,46.21
2019-04-21T06:37:43.488Z,44.32
2019-04-21T06:38:43.375Z,42.74
2019-04-21T06:40:42.291Z,42.09
2019-04-21T06:41:41.405Z,43.07
2019-04-21T06:42:40.129Z,42.79
2019-04-21T06:43:49.986Z,42.94
2019-04-21T06:44:49.086Z,43.11
2019-04-21T06:45:50.699Z,43.83
2019-04-21T06:46:45.914Z,43.33
2019-04-21T06:47:50.188Z,44.26
2019-04-21T06:48:49.711Z,43.65
2019-04-21T06:49:47.453Z,43.81
2019-04-21T06:50:49.311Z,43.88
2019-04-21T06:51:43.278Z,45.03
2019-04-21T06:53:57.818Z,44.17
2019-04-21T06:54:46.908Z,44.38
2019-04-21T06:55:46.772Z,44.09
2019-04-21T06:57:00.209Z,44.51
2019-04-21T06:57:53.206Z,43.32
2019-04-21T06:58:52.689Z,43.33
2019-04-21T06:59:49.695Z,44.11
2019-04-21T07:00:50.045Z,44.15
2019-04-21T07:01:56.622Z,44.13
2019-04-21T07:03:04.643Z,43.57
2019-04-21T07:03:58.970Z,44.64
2019-04-21T07:04:54.375Z,44.24
2019-04-21T07:05:57.232Z,44.07
2019-04-21T07:06:57.801Z,42.84
2019-04-21T07:08:08.937Z,42.67
2019-04-21T07:09:10.253Z,43.14
2019-04-21T07:10:04.840Z,42.40
2019-04-21T07:10:59.458Z,42.32
2019-04-21T07:11:58.166Z,42.22
2019-04-21T07:12:59.247Z,41.58
2019-04-21T07:14:16.080Z,41.79
2019-04-21T07:15:03.311Z,42.24
2019-04-21T07:16:04.109Z,41.77
2019-04-21T07:17:08.093Z,41.30
2019-04-21T07:18:05.238Z,40.70
2019-04-21T07:19:10.067Z,40.54
2019-04-21T07:20:06.910Z,41.00
2019-04-21T07:21:00.035Z,40.90
2019-04-21T07:22:03.337Z,40.92
2019-04-21T07:23:05.148Z,41.37
2019-04-21T07:24:05.359Z,41.58
2019-04-21T07:25:10.466Z,41.23
2019-04-21T07:26:07.618Z,41.45
2019-04-21T07:27:08.964Z,41.30
2019-04-21T07:28:05.273Z,41.28
2019-04-21T07:29:07.655Z,41.26
2019-04-21T07:30:17.164Z,41.83
2019-04-21T07:31:11.246Z,42.26
2019-04-21T07:32:09.968Z,42.79
2019-04-21T07:33:33.605Z,41.62
2019-04-21T07:35:08.387Z,41.37
2019-04-21T07:36:14.817Z,41.55
2019-04-21T07:37:06.505Z,42.95
2019-04-21T07:38:02.905Z,41.71
2019-04-21T07:39:08.791Z,41.65
2019-04-21T07:40:07.760Z,43.22
2019-04-21T07:41:02.265Z,43.30
2019-04-21T07:42:10.844Z,43.61
2019-04-21T07:43:05.613Z,43.41
2019-04-21T07:44:04.579Z,43.73
2019-04-21T07:45:07.251Z,43.18
2019-04-21T07:46:07.830Z,43.95
2019-04-21T07:47:11.839Z,42.96
2019-04-21T07:48:14.008Z,43.14
2019-04-21T07:49:14.029Z,42.57
2019-04-21T07:50:14.735Z,42.41
2019-04-21T07:51:17.321Z,42.68
2019-04-21T07:52:18.935Z,41.68
2019-04-21T07:53:22.806Z,41.88
2019-04-21T07:54:23.287Z,41.08
2019-04-21T07:56:05.966Z,41.26
2019-04-21T07:57:12.690Z,41.45
2019-04-21T07:58:14.983Z,41.99
2019-04-21T07:59:25.629Z,42.07
2019-04-21T08:00:29.604Z,42.52
2019-04-21T08:01:22.025Z,42.87
2019-04-21T08:02:16.959Z,42.17
2019-04-21T08:03:21.938Z,43.15
2019-04-21T08:04:38.295Z,42.27
2019-04-21T08:05:19.868Z,42.35
2019-04-21T08:06:24.134Z,41.90
2019-04-21T08:07:29.168Z,42.69
2019-04-21T08:08:21.104Z,43.11
2019-04-21T08:09:19.740Z,42.60
2019-04-21T08:10:22.486Z,42.94
2019-04-21T08:11:21.030Z,43.56
2019-04-21T08:12:16.024Z,43.88
2019-04-21T08:13:31.265Z,44.40
2019-04-21T08:14:24.216Z,44.22
2019-04-21T08:15:42.679Z,44.36
2019-04-21T08:16:28.489Z,44.33
2019-04-21T08:17:23.470Z,44.85
2019-04-21T08:18:26.714Z,44.70
2019-04-21T08:19:26.229Z,45.00
2019-04-21T08:20:25.897Z,44.72
2019-04-21T08:21:27.964Z,45.62
2019-04-21T08:22:35.014Z,46.05
2019-04-21T08:23:31.856Z,45.58
2019-04-21T08:24:32.737Z,46.22
2019-04-21T08:25:53.340Z,45.81
2019-04-21T08:26:39.842Z,46.57
2019-04-21T08:27:37.309Z,46.71
2019-04-21T08:28:32.084Z,46.78
2019-04-21T08:29:33.139Z,46.72
2019-04-21T08:30:47.841Z,46.62
2019-04-21T08:31:42.629Z,47.07
2019-04-21T08:32:44.426Z,47.32
2019-04-21T08:33:38.729Z,48.19
2019-04-21T08:34:34.474Z,48.75
2019-04-21T08:36:35.526Z,50.06
2019-04-21T08:37:38.058Z,48.49
2019-04-21T08:38:42.241Z,48.54
2019-04-21T08:39:49.643Z,48.04
2019-04-21T08:40:55.839Z,48.28
2019-04-21T08:41:42.631Z,48.59
2019-04-21T08:42:38.366Z,48.70
2019-04-21T08:43:40.666Z,49.29
2019-04-21T08:45:01.642Z,48.94
2019-04-21T08:45:41.392Z,48.96
2019-04-21T08:46:40.845Z,48.32
2019-04-21T08:47:50.197Z,48.90
2019-04-21T08:48:43.972Z,48.46
2019-04-21T08:49:41.465Z,48.98
2019-04-21T08:50:44.240Z,49.12
2019-04-21T08:51:50.499Z,48.71
2019-04-21T08:52:49.251Z,48.97
2019-04-21T08:53:49.212Z,49.16
2019-04-21T08:54:49.676Z,48.39
2019-04-21T08:55:49.692Z,48.50
2019-04-21T08:56:46.638Z,48.17
2019-04-21T08:58:03.948Z,48.50
2019-04-21T08:58:50.862Z,48.67
2019-04-21T08:59:55.103Z,48.84
2019-04-21T09:00:56.293Z,47.82
2019-04-21T09:01:50.833Z,48.20
2019-04-21T09:02:57.469Z,49.17
2019-04-21T09:03:56.727Z,48.30
2019-04-21T09:04:52.429Z,48.13
2019-04-21T09:05:55.272Z,48.73
2019-04-21T09:08:02.153Z,48.54
2019-04-21T09:08:58.938Z,48.61
2019-04-21T09:10:00.817Z,47.96
2019-04-21T09:10:53.148Z,47.09
2019-04-21T09:11:59.410Z,48.14
2019-04-21T09:12:51.761Z,49.24
2019-04-21T09:14:02.993Z,47.95
2019-04-21T09:15:04.670Z,46.70
2019-04-21T09:15:58.015Z,46.60
2019-04-21T09:16:57.760Z,47.07
2019-04-21T09:17:54.999Z,48.28
2019-04-21T09:18:54.046Z,46.69
2019-04-21T09:20:07.966Z,46.88
2019-04-21T09:21:04.669Z,46.42
2019-04-21T09:22:01.529Z,47.19
2019-04-21T09:23:02.221Z,47.70
2019-04-21T09:24:05.229Z,48.04
2019-04-21T09:25:05.879Z,48.10
2019-04-21T09:26:11.833Z,47.96
2019-04-21T09:27:07.161Z,47.57
2019-04-21T09:28:06.991Z,47.28
2019-04-21T09:28:11.119Z,47.38
2019-04-21T09:29:15.488Z,47.36
2019-04-21T09:30:01.069Z,46.36
2019-04-21T09:31:05.325Z,47.03
2019-04-21T09:32:01.358Z,46.72
2019-04-21T09:33:00.524Z,46.28
2019-04-21T09:34:02.326Z,46.34
2019-04-21T09:35:03.415Z,45.97
2019-04-21T09:36:04.316Z,45.77
2019-04-21T09:37:19.361Z,46.02
2019-04-21T09:38:11.270Z,46.09
2019-04-21T09:39:12.273Z,45.69
2019-04-21T09:40:03.020Z,46.05
2019-04-21T09:41:02.727Z,45.28
2019-04-21T09:42:04.593Z,44.15
2019-04-21T09:43:06.489Z,44.62
2019-04-21T09:44:06.799Z,45.84
2019-04-21T09:45:06.286Z,45.70
2019-04-21T09:46:04.188Z,45.05
2019-04-21T09:47:07.393Z,45.14
2019-04-21T09:48:13.270Z,44.62
2019-04-21T09:49:12.547Z,44.96
2019-04-21T09:50:09.587Z,44.88
2019-04-21T09:51:06.618Z,43.44
2019-04-21T09:52:13.754Z,43.73
2019-04-21T09:53:16.695Z,42.92
2019-04-21T09:54:12.059Z,42.87
2019-04-21T09:55:15.297Z,43.32
2019-04-21T09:56:14.436Z,42.65
2019-04-21T09:57:21.954Z,42.71
2019-04-21T09:58:21.013Z,42.56
2019-04-21T09:59:19.306Z,42.74
2019-04-21T10:00:20.642Z,43.24
2019-04-21T10:01:20.449Z,42.62
2019-04-21T10:02:18.188Z,42.91
2019-04-21T10:03:15.784Z,42.29
2019-04-21T10:04:14.229Z,43.18
2019-04-21T10:05:14.440Z,42.13
2019-04-21T10:06:15.694Z,42.10
2019-04-21T10:07:24.322Z,42.27
2019-04-21T10:08:14.502Z,42.51
2019-04-21T10:09:17.872Z,42.39
2019-04-21T10:10:14.906Z,42.91
2019-04-21T10:11:19.172Z,43.72
2019-04-21T10:12:16.238Z,41.77
2019-04-21T10:13:17.122Z,42.95
2019-04-21T10:14:17.565Z,42.30
2019-04-21T10:15:21.948Z,42.03
2019-04-21T10:16:17.548Z,42.08
2019-04-21T10:17:19.364Z,42.77
2019-04-21T10:18:19.487Z,42.03
2019-04-21T10:19:19.395Z,41.67
2019-04-21T10:20:22.368Z,42.04
2019-04-21T10:21:21.689Z,41.98
2019-04-21T10:22:21.127Z,41.81
2019-04-21T10:23:21.184Z,41.16
2019-04-21T10:24:22.214Z,41.48
2019-04-21T10:25:22.797Z,41.57
2019-04-21T10:26:22.736Z,41.25
2019-04-21T10:27:25.452Z,40.74
2019-04-21T10:28:23.767Z,40.48
2019-04-21T10:29:27.891Z,40.58
2019-04-21T10:30:24.849Z,41.98
2019-04-21T10:31:26.997Z,41.23
2019-04-21T10:32:25.773Z,41.17
2019-04-21T10:33:28.196Z,42.03
2019-04-21T10:34:27.280Z,40.83
2019-04-21T10:35:26.952Z,41.74
2019-04-21T10:36:28.966Z,41.02
2019-04-21T10:37:42.750Z,41.71
2019-04-21T10:38:36.809Z,39.93
2019-04-21T10:39:29.773Z,39.07
2019-04-21T10:40:33.559Z,40.04
2019-04-21T10:41:30.300Z,40.51
2019-04-21T10:42:31.440Z,39.70
2019-04-21T10:43:35.482Z,39.44
2019-04-21T10:44:31.513Z,39.57
2019-04-21T10:45:31.041Z,39.33
2019-04-21T10:46:34.977Z,39.07
2019-04-21T10:47:32.383Z,38.46
2019-04-21T10:48:34.997Z,38.70
2019-04-21T10:49:32.870Z,38.28
2019-04-21T10:50:34.707Z,38.15
2019-04-21T10:51:35.157Z,37.73
2019-04-21T10:52:35.889Z,37.80
2019-04-21T10:53:34.672Z,38.29
2019-04-21T10:54:49.180Z,38.75
2019-04-21T10:55:56.445Z,37.81
2019-04-21T10:56:41.401Z,38.95
2019-04-21T10:57:40.350Z,39.07
2019-04-21T10:58:38.316Z,37.95
2019-04-21T10:59:39.405Z,37.59
2019-04-21T11:00:39.849Z,37.67
2019-04-21T11:01:41.028Z,38.04
2019-04-21T11:02:43.312Z,39.00
2019-04-21T11:03:40.775Z,39.00
2019-04-21T11:04:43.633Z,38.44
2019-04-21T11:05:42.907Z,37.18
2019-04-21T11:06:44.488Z,37.98
2019-04-21T11:07:55.294Z,37.87
2019-04-21T11:08:47.568Z,37.00
2019-04-21T11:09:44.318Z,36.59
2019-04-21T11:10:43.926Z,36.94
2019-04-21T11:11:47.867Z,38.15
2019-04-21T11:12:47.582Z,37.58
2019-04-21T11:13:46.417Z,37.04
2019-04-21T11:14:47.229Z,37.75
2019-04-21T11:15:47.580Z,38.53
2019-04-21T11:16:50.920Z,37.28
2019-04-21T11:17:50.653Z,38.16
2019-04-21T11:18:51.497Z,37.96
2019-04-21T11:19:50.671Z,37.18
2019-04-21T11:20:51.172Z,36.66
2019-04-21T11:21:52.595Z,36.09
2019-04-21T11:22:53.534Z,36.03
2019-04-21T11:23:52.476Z,35.81
2019-04-21T11:24:54.006Z,36.59
2019-04-21T11:25:54.038Z,36.12
2019-04-21T11:26:54.015Z,35.19
2019-04-21T11:27:06.740Z,35.95
2019-04-21T11:28:05.122Z,35.98
2019-04-21T11:29:05.213Z,37.43
2019-04-21T11:30:05.383Z,36.82
2019-04-21T11:31:06.918Z,36.58
2019-04-21T11:32:07.183Z,35.96
2019-04-21T11:33:07.304Z,36.22
2019-04-21T11:34:09.233Z,35.57
2019-04-21T11:35:09.445Z,36.03
2019-04-21T11:36:11.185Z,36.66
2019-04-21T11:37:10.326Z,36.77
2019-04-21T11:38:18.417Z,37.64
2019-04-21T11:39:23.275Z,37.17
2019-04-21T11:40:14.972Z,35.90
2019-04-21T11:41:12.011Z,35.75
2019-04-21T11:42:12.074Z,34.47
2019-04-21T11:43:13.709Z,35.36
2019-04-21T11:44:14.102Z,35.07
2019-04-21T11:45:14.734Z,35.23
2019-04-21T11:46:16.137Z,34.49
2019-04-21T11:47:16.286Z,35.15
2019-04-21T11:48:14.891Z,35.12
2019-04-21T11:49:17.962Z,35.39
2019-04-21T11:50:17.110Z,35.27
2019-04-21T11:51:17.239Z,35.28
2019-04-21T11:52:17.226Z,33.78
2019-04-21T11:53:19.098Z,33.96
2019-04-21T11:54:19.274Z,34.66
2019-04-21T11:55:20.635Z,35.01
2019-04-21T11:56:19.379Z,34.54
2019-04-21T11:57:27.831Z,34.86
2019-04-21T11:58:21.454Z,34.54
2019-04-21T11:59:21.875Z,34.46
2019-04-21T12:00:21.897Z,35.33
2019-04-21T12:01:23.508Z,34.35
2019-04-21T12:02:23.573Z,33.80
2019-04-21T12:03:23.977Z,32.29
2019-04-21T12:04:25.200Z,32.86
2019-04-21T12:05:25.509Z,33.52
2019-04-21T12:06:32.153Z,33.76
2019-04-21T12:07:25.180Z,33.98
2019-04-21T12:08:33.239Z,34.01
2019-04-21T12:09:27.304Z,33.73
2019-04-21T12:10:27.200Z,32.62
2019-04-21T12:11:27.334Z,33.35
2019-04-21T12:12:29.519Z,33.71
2019-04-21T12:13:30.051Z,34.53
2019-04-21T12:14:30.270Z,34.40
2019-04-21T12:15:31.438Z,34.21
2019-04-21T12:16:30.851Z,34.14
2019-04-21T12:17:31.983Z,33.95
2019-04-21T12:18:33.835Z,33.14
2019-04-21T12:19:30.797Z,33.51
2019-04-21T12:20:31.835Z,33.66
2019-04-21T12:21:46.617Z,33.91
2019-04-21T12:22:33.822Z,33.50
2019-04-21T12:23:32.388Z,33.65
2019-04-21T12:24:32.957Z,33.50
2019-04-21T12:25:31.677Z,33.60
2019-04-21T12:26:33.899Z,32.47
2019-04-21T12:27:33.879Z,32.76
2019-04-21T12:28:34.247Z,31.76
2019-04-21T12:29:33.958Z,32.24
2019-04-21T12:30:35.755Z,32.31
2019-04-21T12:31:34.274Z,32.68
2019-04-21T12:32:35.982Z,33.50
2019-04-21T12:33:36.213Z,32.39
2019-04-21T12:34:36.247Z,33.50
2019-04-21T12:35:37.764Z,34.27
2019-04-21T12:36:38.061Z,32.48
2019-04-21T12:37:37.730Z,32.85
2019-04-21T12:38:46.928Z,32.85
2019-04-21T12:39:38.718Z,33.42
2019-04-21T12:40:38.848Z,33.84
2019-04-21T12:41:38.488Z,33.86
2019-04-21T12:42:40.377Z,33.96
2019-04-21T12:43:38.972Z,34.48
2019-04-21T12:44:39.317Z,35.12
2019-04-21T12:45:40.347Z,33.85
2019-04-21T12:46:40.510Z,34.31
2019-04-21T12:47:41.826Z,34.37
2019-04-21T12:48:39.991Z,33.40
2019-04-21T12:49:41.385Z,34.06
2019-04-21T12:50:41.772Z,34.70
2019-04-21T12:51:41.881Z,34.42
2019-04-21T12:52:42.051Z,33.70
2019-04-21T12:53:43.483Z,33.48
2019-04-21T12:54:43.933Z,33.61
2019-04-21T12:55:46.280Z,34.31
2019-04-21T12:56:45.570Z,34.36
2019-04-21T12:57:45.470Z,34.23
2019-04-21T12:58:47.015Z,34.48
2019-04-21T12:59:46.699Z,34.62
2019-04-21T13:00:47.026Z,33.74
2019-04-21T13:01:46.841Z,34.11
2019-04-21T13:02:47.889Z,34.54
2019-04-21T13:03:48.062Z,33.58
2019-04-21T13:04:49.696Z,33.51
2019-04-21T13:05:49.297Z,34.33
2019-04-21T13:06:50.315Z,33.99
2019-04-21T13:07:51.181Z,33.78
2019-04-21T13:08:58.982Z,33.50
2019-04-21T13:09:52.644Z,33.47
2019-04-21T13:10:52.326Z,33.79
2019-04-21T13:11:55.160Z,33.79
2019-04-21T13:12:54.241Z,34.36
2019-04-21T13:13:54.048Z,34.85
2019-04-21T13:14:57.904Z,35.48
2019-04-21T13:15:55.761Z,35.33
2019-04-21T13:16:55.201Z,35.70
2019-04-21T13:17:56.326Z,35.46
2019-04-21T13:18:55.447Z,35.37
2019-04-21T13:19:56.968Z,34.50
2019-04-21T13:20:58.923Z,34.77
2019-04-21T13:21:56.462Z,35.01
2019-04-21T13:22:05.859Z,34.90
2019-04-21T13:23:05.975Z,34.87
2019-04-21T13:24:07.209Z,35.59
2019-04-21T13:25:07.737Z,35.57
2019-04-21T13:26:09.649Z,35.01
2019-04-21T13:27:11.320Z,35.08
2019-04-21T13:28:10.448Z,35.92
2019-04-21T13:29:10.415Z,35.80
2019-04-21T13:30:12.785Z,34.93
2019-04-21T13:31:11.939Z,34.58
2019-04-21T13:32:12.561Z,34.16
2019-04-21T13:33:13.521Z,34.42
2019-04-21T13:34:13.913Z,35.13
2019-04-21T13:35:15.050Z,34.75
2019-04-21T13:36:14.056Z,35.32
2019-04-21T13:37:15.234Z,35.24
2019-04-21T13:38:24.532Z,35.87
2019-04-21T13:39:48.794Z,35.61
2019-04-21T13:40:34.440Z,35.97
2019-04-21T13:41:31.087Z,34.37
2019-04-21T13:42:24.036Z,35.22
2019-04-21T13:43:16.937Z,36.18
2019-04-21T13:44:17.825Z,35.63
2019-04-21T13:45:16.440Z,34.03
2019-04-21T13:46:17.693Z,34.92
2019-04-21T13:47:22.668Z,35.28
2019-04-21T13:48:18.928Z,34.58
2019-04-21T13:49:19.236Z,33.96
2019-04-21T13:50:19.414Z,33.30
2019-04-21T13:51:22.653Z,34.23
2019-04-21T13:52:20.612Z,34.22
2019-04-21T13:53:22.670Z,33.75